sensor_id;sensor_type;location;lat;lon;timestamp;temperature;humidity
70826;SHT31;58446;41.490;22.098;2023-03-24T00:01:55;12.68;68.62
70826;SHT31;58446;41.490;22.098;2023-03-24T00:04:21;12.32;68.08
70826;SHT31;58446;41.490;22.098;2023-03-24T00:06:49;12.31;69.40
70826;SHT31;58446;41.490;22.098;2023-03-24T00:09:16;12.35;68.66
70826;SHT31;58446;41.490;22.098;2023-03-24T00:11:43;12.41;68.38
70826;SHT31;58446;41.490;22.098;2023-03-24T00:14:09;12.28;67.74
70826;SHT31;58446;41.490;22.098;2023-03-24T00:16:40;12.28;68.82
70826;SHT31;58446;41.490;22.098;2023-03-24T00:19:10;12.13;69.31
70826;SHT31;58446;41.490;22.098;2023-03-24T00:21:38;12.22;68.50
70826;SHT31;58446;41.490;22.098;2023-03-24T00:24:04;11.71;70.61
70826;SHT31;58446;41.490;22.098;2023-03-24T00:26:33;11.77;70.62
70826;SHT31;58446;41.490;22.098;2023-03-24T00:28:59;11.77;69.64
70826;SHT31;58446;41.490;22.098;2023-03-24T00:31:26;11.60;70.64
70826;SHT31;58446;41.490;22.098;2023-03-24T00:33:52;11.53;72.01
70826;SHT31;58446;41.490;22.098;2023-03-24T00:36:20;11.20;72.71
70826;SHT31;58446;41.490;22.098;2023-03-24T00:38:47;11.04;73.70
70826;SHT31;58446;41.490;22.098;2023-03-24T00:41:14;11.04;74.02
70826;SHT31;58446;41.490;22.098;2023-03-24T00:43:48;11.08;74.55
70826;SHT31;58446;41.490;22.098;2023-03-24T00:46:15;11.60;72.38
70826;SHT31;58446;41.490;22.098;2023-03-24T00:48:53;12.10;70.46
70826;SHT31;58446;41.490;22.098;2023-03-24T00:51:29;12.31;69.63
70826;SHT31;58446;41.490;22.098;2023-03-24T00:53:55;12.31;69.38
70826;SHT31;58446;41.490;22.098;2023-03-24T00:56:24;12.07;68.36
70826;SHT31;58446;41.490;22.098;2023-03-24T00:58:50;11.39;69.94
70826;SHT31;58446;41.490;22.098;2023-03-24T01:01:15;11.05;71.47
70826;SHT31;58446;41.490;22.098;2023-03-24T01:03:41;10.99;71.99
70826;SHT31;58446;41.490;22.098;2023-03-24T01:06:12;11.27;71.94
70826;SHT31;58446;41.490;22.098;2023-03-24T01:08:38;11.70;70.57
70826;SHT31;58446;41.490;22.098;2023-03-24T01:11:04;11.94;69.58
70826;SHT31;58446;41.490;22.098;2023-03-24T01:13:30;12.07;68.98
70826;SHT31;58446;41.490;22.098;2023-03-24T01:15:56;12.13;68.51
70826;SHT31;58446;41.490;22.098;2023-03-24T01:18:22;12.20;68.25
70826;SHT31;58446;41.490;22.098;2023-03-24T01:20:48;12.18;67.88
70826;SHT31;58446;41.490;22.098;2023-03-24T01:23:17;11.73;68.96
70826;SHT31;58446;41.490;22.098;2023-03-24T01:25:46;11.80;68.22
70826;SHT31;58446;41.490;22.098;2023-03-24T01:28:17;11.83;68.94
70826;SHT31;58446;41.490;22.098;2023-03-24T01:30:46;11.27;69.20
70826;SHT31;58446;41.490;22.098;2023-03-24T01:33:11;11.15;71.06
70826;SHT31;58446;41.490;22.098;2023-03-24T01:35:37;11.50;69.89
70826;SHT31;58446;41.490;22.098;2023-03-24T01:38:07;10.77;70.98
70826;SHT31;58446;41.490;22.098;2023-03-24T01:40:36;11.16;70.48
70826;SHT31;58446;41.490;22.098;2023-03-24T01:43:03;11.65;69.34
70826;SHT31;58446;41.490;22.098;2023-03-24T01:48:25;11.73;68.94
70826;SHT31;58446;41.490;22.098;2023-03-24T01:51:31;11.93;68.21
70826;SHT31;58446;41.490;22.098;2023-03-24T01:54:33;11.37;69.37
70826;SHT31;58446;41.490;22.098;2023-03-24T01:57:04;11.47;69.41
70826;SHT31;58446;41.490;22.098;2023-03-24T01:59:33;11.37;68.79
70826;SHT31;58446;41.490;22.098;2023-03-24T02:02:00;10.65;71.51
70826;SHT31;58446;41.490;22.098;2023-03-24T02:04:32;11.14;70.80
70826;SHT31;58446;41.490;22.098;2023-03-24T02:07:04;11.43;69.84
70826;SHT31;58446;41.490;22.098;2023-03-24T02:09:32;11.52;69.30
70826;SHT31;58446;41.490;22.098;2023-03-24T02:11:59;11.70;68.62
70826;SHT31;58446;41.490;22.098;2023-03-24T02:14:24;11.76;68.22
70826;SHT31;58446;41.490;22.098;2023-03-24T02:27:34;11.26;69.94
70826;SHT31;58446;41.490;22.098;2023-03-24T02:33:35;11.49;69.31
70826;SHT31;58446;41.490;22.098;2023-03-24T02:42:05;11.29;70.59
70826;SHT31;58446;41.490;22.098;2023-03-24T02:44:34;11.46;69.74
70826;SHT31;58446;41.490;22.098;2023-03-24T02:47:14;11.50;69.64
70826;SHT31;58446;41.490;22.098;2023-03-24T02:50:07;11.40;69.49
70826;SHT31;58446;41.490;22.098;2023-03-24T02:52:49;11.50;69.32
70826;SHT31;58446;41.490;22.098;2023-03-24T02:55:22;11.49;68.71
70826;SHT31;58446;41.490;22.098;2023-03-24T02:57:57;11.36;67.83
70826;SHT31;58446;41.490;22.098;2023-03-24T03:00:37;11.20;69.37
70826;SHT31;58446;41.490;22.098;2023-03-24T03:03:17;11.29;68.89
70826;SHT31;58446;41.490;22.098;2023-03-24T03:05:55;11.18;69.29
70826;SHT31;58446;41.490;22.098;2023-03-24T03:08:24;11.22;69.09
70826;SHT31;58446;41.490;22.098;2023-03-24T03:10:53;11.14;69.27
70826;SHT31;58446;41.490;22.098;2023-03-24T03:13:24;11.27;69.00
70826;SHT31;58446;41.490;22.098;2023-03-24T03:15:55;11.36;68.52
70826;SHT31;58446;41.490;22.098;2023-03-24T03:18:32;11.37;68.35
70826;SHT31;58446;41.490;22.098;2023-03-24T03:21:09;11.27;68.44
70826;SHT31;58446;41.490;22.098;2023-03-24T03:24:01;11.22;68.67
70826;SHT31;58446;41.490;22.098;2023-03-24T03:26:28;11.02;68.75
70826;SHT31;58446;41.490;22.098;2023-03-24T03:29:00;11.16;68.99
70826;SHT31;58446;41.490;22.098;2023-03-24T03:31:35;11.11;68.90
70826;SHT31;58446;41.490;22.098;2023-03-24T03:34:21;11.12;68.93
70826;SHT31;58446;41.490;22.098;2023-03-24T03:37:00;10.89;69.24
70826;SHT31;58446;41.490;22.098;2023-03-24T03:39:33;11.01;69.43
70826;SHT31;58446;41.490;22.098;2023-03-24T03:42:02;11.06;69.37
70826;SHT31;58446;41.490;22.098;2023-03-24T03:44:30;11.01;69.29
70826;SHT31;58446;41.490;22.098;2023-03-24T03:46:55;11.02;69.39
70826;SHT31;58446;41.490;22.098;2023-03-24T03:49:21;11.04;69.27
70826;SHT31;58446;41.490;22.098;2023-03-24T03:51:47;11.11;69.07
70826;SHT31;58446;41.490;22.098;2023-03-24T03:54:15;11.14;68.89
70826;SHT31;58446;41.490;22.098;2023-03-24T03:56:41;11.19;68.56
70826;SHT31;58446;41.490;22.098;2023-03-24T03:59:20;11.20;68.28
70826;SHT31;58446;41.490;22.098;2023-03-24T04:01:47;11.26;67.81
70826;SHT31;58446;41.490;22.098;2023-03-24T04:07:16;11.09;67.58
70826;SHT31;58446;41.490;22.098;2023-03-24T04:10:02;10.84;67.43
70826;SHT31;58446;41.490;22.098;2023-03-24T04:12:48;10.56;68.87
70826;SHT31;58446;41.490;22.098;2023-03-24T04:22:09;10.69;68.30
70826;SHT31;58446;41.490;22.098;2023-03-24T04:27:18;10.82;67.96
70826;SHT31;58446;41.490;22.098;2023-03-24T04:30:08;10.87;67.77
70826;SHT31;58446;41.490;22.098;2023-03-24T04:32:45;10.91;67.57
70826;SHT31;58446;41.490;22.098;2023-03-24T04:35:22;10.75;67.90
70826;SHT31;58446;41.490;22.098;2023-03-24T04:37:57;10.61;68.15
70826;SHT31;58446;41.490;22.098;2023-03-24T04:40:28;10.58;68.45
70826;SHT31;58446;41.490;22.098;2023-03-24T04:42:59;10.71;68.05
70826;SHT31;58446;41.490;22.098;2023-03-24T04:45:26;10.63;68.03
70826;SHT31;58446;41.490;22.098;2023-03-24T04:47:57;10.64;67.96
70826;SHT31;58446;41.490;22.098;2023-03-24T04:50:39;10.60;67.82
70826;SHT31;58446;41.490;22.098;2023-03-24T04:53:06;10.69;67.64
70826;SHT31;58446;41.490;22.098;2023-03-24T04:55:53;11.08;66.38
70826;SHT31;58446;41.490;22.098;2023-03-24T04:58:21;11.36;65.64
70826;SHT31;58446;41.490;22.098;2023-03-24T05:00:48;11.35;65.86
70826;SHT31;58446;41.490;22.098;2023-03-24T05:03:15;11.20;65.83
70826;SHT31;58446;41.490;22.098;2023-03-24T05:05:42;11.26;66.06
70826;SHT31;58446;41.490;22.098;2023-03-24T05:08:08;11.43;65.63
70826;SHT31;58446;41.490;22.098;2023-03-24T05:10:35;11.37;65.50
70826;SHT31;58446;41.490;22.098;2023-03-24T05:13:02;11.66;65.04
70826;SHT31;58446;41.490;22.098;2023-03-24T05:15:28;11.62;64.47
70826;SHT31;58446;41.490;22.098;2023-03-24T05:17:54;11.59;64.97
70826;SHT31;58446;41.490;22.098;2023-03-24T05:20:21;11.02;66.73
70826;SHT31;58446;41.490;22.098;2023-03-24T05:22:47;11.05;66.22
70826;SHT31;58446;41.490;22.098;2023-03-24T05:25:14;11.32;66.09
70826;SHT31;58446;41.490;22.098;2023-03-24T05:27:41;11.04;66.10
70826;SHT31;58446;41.490;22.098;2023-03-24T05:30:07;10.99;67.07
70826;SHT31;58446;41.490;22.098;2023-03-24T05:32:34;10.96;67.32
70826;SHT31;58446;41.490;22.098;2023-03-24T05:35:00;11.04;67.41
70826;SHT31;58446;41.490;22.098;2023-03-24T05:37:25;11.27;66.57
70826;SHT31;58446;41.490;22.098;2023-03-24T05:39:52;11.39;66.10
70826;SHT31;58446;41.490;22.098;2023-03-24T05:42:19;11.44;66.08
70826;SHT31;58446;41.490;22.098;2023-03-24T05:44:45;11.76;64.81
70826;SHT31;58446;41.490;22.098;2023-03-24T05:47:12;11.52;65.86
70826;SHT31;58446;41.490;22.098;2023-03-24T05:49:41;11.44;66.15
70826;SHT31;58446;41.490;22.098;2023-03-24T05:52:07;11.55;65.90
70826;SHT31;58446;41.490;22.098;2023-03-24T05:54:34;11.99;64.84
70826;SHT31;58446;41.490;22.098;2023-03-24T05:56:59;12.38;63.53
70826;SHT31;58446;41.490;22.098;2023-03-24T05:59:26;12.52;63.02
70826;SHT31;58446;41.490;22.098;2023-03-24T06:01:52;12.68;62.45
70826;SHT31;58446;41.490;22.098;2023-03-24T06:04:22;13.11;62.03
70826;SHT31;58446;41.490;22.098;2023-03-24T06:06:48;13.44;60.44
70826;SHT31;58446;41.490;22.098;2023-03-24T06:09:15;13.44;60.97
70826;SHT31;58446;41.490;22.098;2023-03-24T06:11:43;13.64;60.39
70826;SHT31;58446;41.490;22.098;2023-03-24T06:14:10;13.59;60.07
70826;SHT31;58446;41.490;22.098;2023-03-24T06:16:36;13.74;59.55
70826;SHT31;58446;41.490;22.098;2023-03-24T06:19:05;13.83;58.80
70826;SHT31;58446;41.490;22.098;2023-03-24T06:21:34;14.04;57.98
70826;SHT31;58446;41.490;22.098;2023-03-24T06:23:59;13.68;59.17
70826;SHT31;58446;41.490;22.098;2023-03-24T06:26:25;13.51;58.58
70826;SHT31;58446;41.490;22.098;2023-03-24T06:28:56;13.59;59.05
70826;SHT31;58446;41.490;22.098;2023-03-24T06:31:22;13.55;59.56
70826;SHT31;58446;41.490;22.098;2023-03-24T06:33:49;13.94;58.95
70826;SHT31;58446;41.490;22.098;2023-03-24T06:36:15;13.74;58.93
70826;SHT31;58446;41.490;22.098;2023-03-24T06:38:41;13.58;59.08
70826;SHT31;58446;41.490;22.098;2023-03-24T06:41:08;13.65;59.43
70826;SHT31;58446;41.490;22.098;2023-03-24T06:43:34;13.92;59.13
70826;SHT31;58446;41.490;22.098;2023-03-24T06:46:00;14.47;58.30
70826;SHT31;58446;41.490;22.098;2023-03-24T06:48:26;14.71;56.96
70826;SHT31;58446;41.490;22.098;2023-03-24T06:50:53;14.92;56.75
70826;SHT31;58446;41.490;22.098;2023-03-24T06:53:19;15.12;56.38
70826;SHT31;58446;41.490;22.098;2023-03-24T06:55:48;15.46;54.80
70826;SHT31;58446;41.490;22.098;2023-03-24T06:58:15;15.28;54.82
70826;SHT31;58446;41.490;22.098;2023-03-24T07:00:44;15.58;54.28
70826;SHT31;58446;41.490;22.098;2023-03-24T07:03:11;15.56;54.96
70826;SHT31;58446;41.490;22.098;2023-03-24T07:05:39;15.38;54.77
70826;SHT31;58446;41.490;22.098;2023-03-24T07:08:05;15.36;55.28
70826;SHT31;58446;41.490;22.098;2023-03-24T07:10:31;15.48;55.61
70826;SHT31;58446;41.490;22.098;2023-03-24T07:12:58;15.87;55.14
70826;SHT31;58446;41.490;22.098;2023-03-24T07:15:26;16.22;54.42
70826;SHT31;58446;41.490;22.098;2023-03-24T07:17:51;16.40;52.70
70826;SHT31;58446;41.490;22.098;2023-03-24T07:20:17;16.42;52.98
70826;SHT31;58446;41.490;22.098;2023-03-24T07:22:44;16.69;53.09
70826;SHT31;58446;41.490;22.098;2023-03-24T07:25:10;16.76;52.84
70826;SHT31;58446;41.490;22.098;2023-03-24T07:27:39;16.80;51.94
70826;SHT31;58446;41.490;22.098;2023-03-24T07:30:05;16.67;52.50
70826;SHT31;58446;41.490;22.098;2023-03-24T07:32:32;16.76;53.47
70826;SHT31;58446;41.490;22.098;2023-03-24T07:35:08;16.54;53.54
70826;SHT31;58446;41.490;22.098;2023-03-24T07:37:35;16.62;54.47
70826;SHT31;58446;41.490;22.098;2023-03-24T07:40:03;16.86;54.00
70826;SHT31;58446;41.490;22.098;2023-03-24T07:42:34;17.13;53.85
70826;SHT31;58446;41.490;22.098;2023-03-24T07:44:59;17.13;53.92
70826;SHT31;58446;41.490;22.098;2023-03-24T07:47:25;17.26;52.90
70826;SHT31;58446;41.490;22.098;2023-03-24T07:49:51;17.27;53.89
70826;SHT31;58446;41.490;22.098;2023-03-24T07:52:16;17.22;54.15
70826;SHT31;58446;41.490;22.098;2023-03-24T07:54:42;17.29;54.13
70826;SHT31;58446;41.490;22.098;2023-03-24T07:57:07;17.30;54.11
70826;SHT31;58446;41.490;22.098;2023-03-24T07:59:33;17.37;52.17
70826;SHT31;58446;41.490;22.098;2023-03-24T08:01:59;17.00;56.04
70826;SHT31;58446;41.490;22.098;2023-03-24T08:04:25;16.47;56.06
70826;SHT31;58446;41.490;22.098;2023-03-24T08:06:54;15.96;59.83
70826;SHT31;58446;41.490;22.098;2023-03-24T08:09:19;16.25;57.70
70826;SHT31;58446;41.490;22.098;2023-03-24T08:11:48;16.16;59.75
70826;SHT31;58446;41.490;22.098;2023-03-24T08:14:14;16.22;59.67
70826;SHT31;58446;41.490;22.098;2023-03-24T08:16:39;16.38;59.70
70826;SHT31;58446;41.490;22.098;2023-03-24T08:19:05;16.64;57.85
70826;SHT31;58446;41.490;22.098;2023-03-24T08:21:31;16.83;58.82
70826;SHT31;58446;41.490;22.098;2023-03-24T08:23:57;17.00;58.47
70826;SHT31;58446;41.490;22.098;2023-03-24T08:26:22;17.12;58.24
70826;SHT31;58446;41.490;22.098;2023-03-24T08:28:51;16.88;58.00
70826;SHT31;58446;41.490;22.098;2023-03-24T08:31:17;16.95;58.81
70826;SHT31;58446;41.490;22.098;2023-03-24T08:33:43;16.89;58.44
70826;SHT31;58446;41.490;22.098;2023-03-24T08:36:08;16.86;57.74
70826;SHT31;58446;41.490;22.098;2023-03-24T08:38:34;16.99;59.44
70826;SHT31;58446;41.490;22.098;2023-03-24T08:41:04;17.12;59.35
70826;SHT31;58446;41.490;22.098;2023-03-24T08:43:32;17.22;58.07
70826;SHT31;58446;41.490;22.098;2023-03-24T08:45:59;17.31;57.49
70826;SHT31;58446;41.490;22.098;2023-03-24T08:48:27;17.30;58.01
70826;SHT31;58446;41.490;22.098;2023-03-24T08:50:54;17.10;58.01
70826;SHT31;58446;41.490;22.098;2023-03-24T08:53:20;17.15;57.00
70826;SHT31;58446;41.490;22.098;2023-03-24T08:55:46;17.17;57.32
70826;SHT31;58446;41.490;22.098;2023-03-24T08:58:15;17.24;57.21
70826;SHT31;58446;41.490;22.098;2023-03-24T09:00:42;17.17;55.88
70826;SHT31;58446;41.490;22.098;2023-03-24T09:03:12;17.23;56.75
70826;SHT31;58446;41.490;22.098;2023-03-24T09:05:38;17.40;56.40
70826;SHT31;58446;41.490;22.098;2023-03-24T09:08:05;17.40;57.08
70826;SHT31;58446;41.490;22.098;2023-03-24T09:10:32;17.55;55.36
70826;SHT31;58446;41.490;22.098;2023-03-24T09:12:58;17.63;55.26
70826;SHT31;58446;41.490;22.098;2023-03-24T09:15:24;17.63;55.13
70826;SHT31;58446;41.490;22.098;2023-03-24T09:17:51;17.74;54.66
70826;SHT31;58446;41.490;22.098;2023-03-24T09:20:17;17.85;55.34
70826;SHT31;58446;41.490;22.098;2023-03-24T09:22:44;18.13;53.65
70826;SHT31;58446;41.490;22.098;2023-03-24T09:25:16;18.19;53.64
70826;SHT31;58446;41.490;22.098;2023-03-24T09:27:42;18.49;53.38
70826;SHT31;58446;41.490;22.098;2023-03-24T09:30:09;18.55;53.21
70826;SHT31;58446;41.490;22.098;2023-03-24T09:32:36;18.77;51.02
70826;SHT31;58446;41.490;22.098;2023-03-24T09:35:02;18.70;52.34
70826;SHT31;58446;41.490;22.098;2023-03-24T09:37:30;18.48;52.50
70826;SHT31;58446;41.490;22.098;2023-03-24T09:39:56;18.48;52.98
70826;SHT31;58446;41.490;22.098;2023-03-24T09:42:26;18.56;51.83
70826;SHT31;58446;41.490;22.098;2023-03-24T09:44:55;18.56;50.65
70826;SHT31;58446;41.490;22.098;2023-03-24T09:47:47;18.79;52.20
70826;SHT31;58446;41.490;22.098;2023-03-24T09:50:34;19.03;49.66
70826;SHT31;58446;41.490;22.098;2023-03-24T09:53:07;19.27;48.59
70826;SHT31;58446;41.490;22.098;2023-03-24T09:55:38;19.58;47.43
70826;SHT31;58446;41.490;22.098;2023-03-24T09:58:06;19.54;48.08
70826;SHT31;58446;41.490;22.098;2023-03-24T10:00:33;19.68;46.67
70826;SHT31;58446;41.490;22.098;2023-03-24T10:03:27;19.78;47.24
70826;SHT31;58446;41.490;22.098;2023-03-24T10:05:57;19.86;46.50
70826;SHT31;58446;41.490;22.098;2023-03-24T10:16:19;20.09;45.79
70826;SHT31;58446;41.490;22.098;2023-03-24T10:18:57;20.21;44.71
70826;SHT31;58446;41.490;22.098;2023-03-24T10:21:31;20.14;43.49
70826;SHT31;58446;41.490;22.098;2023-03-24T10:24:32;20.29;43.56
70826;SHT31;58446;41.490;22.098;2023-03-24T10:29:34;20.26;44.02
70826;SHT31;58446;41.490;22.098;2023-03-24T10:32:21;20.30;44.33
70826;SHT31;58446;41.490;22.098;2023-03-24T10:34:59;19.89;43.04
70826;SHT31;58446;41.490;22.098;2023-03-24T10:37:32;19.66;43.45
70826;SHT31;58446;41.490;22.098;2023-03-24T10:39:59;19.32;44.54
70826;SHT31;58446;41.490;22.098;2023-03-24T10:42:29;19.38;44.66
70826;SHT31;58446;41.490;22.098;2023-03-24T10:44:56;19.38;43.57
70826;SHT31;58446;41.490;22.098;2023-03-24T10:47:24;19.29;43.76
70826;SHT31;58446;41.490;22.098;2023-03-24T10:49:56;19.48;42.98
70826;SHT31;58446;41.490;22.098;2023-03-24T10:52:23;19.47;43.49
70826;SHT31;58446;41.490;22.098;2023-03-24T10:54:57;19.19;43.91
70826;SHT31;58446;41.490;22.098;2023-03-24T10:57:24;19.29;43.65
70826;SHT31;58446;41.490;22.098;2023-03-24T10:59:56;19.44;43.40
70826;SHT31;58446;41.490;22.098;2023-03-24T11:02:26;19.32;43.52
70826;SHT31;58446;41.490;22.098;2023-03-24T11:04:57;19.48;43.00
70826;SHT31;58446;41.490;22.098;2023-03-24T11:07:28;19.65;42.41
70826;SHT31;58446;41.490;22.098;2023-03-24T11:15:21;19.94;44.43
70826;SHT31;58446;41.490;22.098;2023-03-24T11:17:55;20.19;43.91
70826;SHT31;58446;41.490;22.098;2023-03-24T11:20:34;20.17;42.95
70826;SHT31;58446;41.490;22.098;2023-03-24T11:23:40;20.19;43.72
70826;SHT31;58446;41.490;22.098;2023-03-24T11:26:14;20.36;42.16
70826;SHT31;58446;41.490;22.098;2023-03-24T11:28:46;20.58;44.02
70826;SHT31;58446;41.490;22.098;2023-03-24T11:31:20;20.72;42.33
70826;SHT31;58446;41.490;22.098;2023-03-24T11:39:17;20.31;40.55
70826;SHT31;58446;41.490;22.098;2023-03-24T11:44:43;20.36;41.95
70826;SHT31;58446;41.490;22.098;2023-03-24T11:47:27;20.45;42.28
70826;SHT31;58446;41.490;22.098;2023-03-24T11:50:27;20.72;41.56
70826;SHT31;58446;41.490;22.098;2023-03-24T11:53:17;20.88;41.21
70826;SHT31;58446;41.490;22.098;2023-03-24T12:03:40;21.02;41.90
70826;SHT31;58446;41.490;22.098;2023-03-24T12:14:08;21.67;38.73
70826;SHT31;58446;41.490;22.098;2023-03-24T12:16:48;21.77;37.25
70826;SHT31;58446;41.490;22.098;2023-03-24T12:24:49;21.63;38.24
70826;SHT31;58446;41.490;22.098;2023-03-24T12:30:13;21.36;36.60
70826;SHT31;58446;41.490;22.098;2023-03-24T12:33:01;21.39;37.60
70826;SHT31;58446;41.490;22.098;2023-03-24T12:41:11;21.47;38.35
70826;SHT31;58446;41.490;22.098;2023-03-24T12:46:54;21.97;35.68
70826;SHT31;58446;41.490;22.098;2023-03-24T12:52:15;22.09;34.10
70826;SHT31;58446;41.490;22.098;2023-03-24T12:57:38;22.21;33.97
70826;SHT31;58446;41.490;22.098;2023-03-24T13:00:17;22.02;33.65
70826;SHT31;58446;41.490;22.098;2023-03-24T13:02:48;22.02;35.41
70826;SHT31;58446;41.490;22.098;2023-03-24T13:05:21;22.14;34.34
70826;SHT31;58446;41.490;22.098;2023-03-24T13:07:49;22.27;34.97
70826;SHT31;58446;41.490;22.098;2023-03-24T13:10:26;22.42;35.31
70826;SHT31;58446;41.490;22.098;2023-03-24T13:15:52;22.65;33.50
70826;SHT31;58446;41.490;22.098;2023-03-24T13:18:50;22.66;32.96
70826;SHT31;58446;41.490;22.098;2023-03-24T13:21:18;22.69;33.55
70826;SHT31;58446;41.490;22.098;2023-03-24T13:27:14;22.73;31.73
70826;SHT31;58446;41.490;22.098;2023-03-24T13:32:40;22.28;33.26
70826;SHT31;58446;41.490;22.098;2023-03-24T13:38:01;22.56;32.42
70826;SHT31;58446;41.490;22.098;2023-03-24T13:40:37;22.66;31.39
70826;SHT31;58446;41.490;22.098;2023-03-24T13:45:43;22.48;31.90
70826;SHT31;58446;41.490;22.098;2023-03-24T13:50:56;22.51;32.36
70826;SHT31;58446;41.490;22.098;2023-03-24T13:53:56;22.59;32.70
70826;SHT31;58446;41.490;22.098;2023-03-24T13:56:46;22.75;31.97
70826;SHT31;58446;41.490;22.098;2023-03-24T13:59:29;22.62;32.22
70826;SHT31;58446;41.490;22.098;2023-03-24T14:02:22;22.42;31.54
70826;SHT31;58446;41.490;22.098;2023-03-24T14:05:28;22.52;31.42
70826;SHT31;58446;41.490;22.098;2023-03-24T14:15:31;22.82;30.32
70826;SHT31;58446;41.490;22.098;2023-03-24T14:18:15;22.88;31.10
70826;SHT31;58446;41.490;22.098;2023-03-24T14:21:04;23.00;30.67
70826;SHT31;58446;41.490;22.098;2023-03-24T14:23:47;23.02;30.56
70826;SHT31;58446;41.490;22.098;2023-03-24T14:28:56;23.13;31.12
70826;SHT31;58446;41.490;22.098;2023-03-24T14:31:26;23.17;29.46
70826;SHT31;58446;41.490;22.098;2023-03-24T14:33:56;23.09;29.22
70826;SHT31;58446;41.490;22.098;2023-03-24T14:36:43;23.04;30.25
70826;SHT31;58446;41.490;22.098;2023-03-24T14:39:32;23.03;30.87
70826;SHT31;58446;41.490;22.098;2023-03-24T14:42:00;23.00;29.63
70826;SHT31;58446;41.490;22.098;2023-03-24T14:47:17;22.96;30.25
70826;SHT31;58446;41.490;22.098;2023-03-24T14:49:45;23.06;31.75
70826;SHT31;58446;41.490;22.098;2023-03-24T14:52:33;23.10;31.60
70826;SHT31;58446;41.490;22.098;2023-03-24T14:55:04;23.03;30.88
70826;SHT31;58446;41.490;22.098;2023-03-24T14:57:34;22.90;37.33
70826;SHT31;58446;41.490;22.098;2023-03-24T15:00:09;22.77;37.56
70826;SHT31;58446;41.490;22.098;2023-03-24T15:02:43;22.68;38.81
70826;SHT31;58446;41.490;22.098;2023-03-24T15:05:28;22.53;41.09
70826;SHT31;58446;41.490;22.098;2023-03-24T15:08:15;22.39;40.98
70826;SHT31;58446;41.490;22.098;2023-03-24T15:10:45;22.27;41.86
70826;SHT31;58446;41.490;22.098;2023-03-24T15:15:50;22.04;44.88
70826;SHT31;58446;41.490;22.098;2023-03-24T15:18:17;21.87;44.48
70826;SHT31;58446;41.490;22.098;2023-03-24T15:20:51;21.78;45.19
70826;SHT31;58446;41.490;22.098;2023-03-24T15:23:23;21.64;46.88
70826;SHT31;58446;41.490;22.098;2023-03-24T15:25:49;21.64;47.40
70826;SHT31;58446;41.490;22.098;2023-03-24T15:28:27;21.56;47.35
70826;SHT31;58446;41.490;22.098;2023-03-24T15:30:55;21.45;47.83
70826;SHT31;58446;41.490;22.098;2023-03-24T15:33:22;21.32;48.16
70826;SHT31;58446;41.490;22.098;2023-03-24T15:35:56;21.10;48.69
70826;SHT31;58446;41.490;22.098;2023-03-24T15:38:30;21.03;48.96
70826;SHT31;58446;41.490;22.098;2023-03-24T15:41:06;20.94;49.34
70826;SHT31;58446;41.490;22.098;2023-03-24T15:43:40;20.87;49.79
70826;SHT31;58446;41.490;22.098;2023-03-24T15:46:36;20.79;50.44
70826;SHT31;58446;41.490;22.098;2023-03-24T15:49:17;20.71;51.35
70826;SHT31;58446;41.490;22.098;2023-03-24T15:51:50;20.58;51.53
70826;SHT31;58446;41.490;22.098;2023-03-24T15:54:23;20.54;51.81
70826;SHT31;58446;41.490;22.098;2023-03-24T15:57:18;20.38;52.70
70826;SHT31;58446;41.490;22.098;2023-03-24T16:02:35;20.16;53.57
70826;SHT31;58446;41.490;22.098;2023-03-24T16:05:21;20.09;53.77
70826;SHT31;58446;41.490;22.098;2023-03-24T16:08:04;20.05;53.97
70826;SHT31;58446;41.490;22.098;2023-03-24T16:10:37;19.96;54.29
70826;SHT31;58446;41.490;22.098;2023-03-24T16:13:15;19.78;54.88
70826;SHT31;58446;41.490;22.098;2023-03-24T16:15:44;19.65;55.37
70826;SHT31;58446;41.490;22.098;2023-03-24T16:18:20;19.54;55.56
70826;SHT31;58446;41.490;22.098;2023-03-24T16:20:47;19.42;55.83
70826;SHT31;58446;41.490;22.098;2023-03-24T16:23:16;19.34;56.13
70826;SHT31;58446;41.490;22.098;2023-03-24T16:25:41;19.22;56.64
70826;SHT31;58446;41.490;22.098;2023-03-24T16:28:11;19.08;56.94
70826;SHT31;58446;41.490;22.098;2023-03-24T16:30:38;19.01;57.11
70826;SHT31;58446;41.490;22.098;2023-03-24T16:33:05;18.93;57.36
70826;SHT31;58446;41.490;22.098;2023-03-24T16:35:32;18.77;57.82
70826;SHT31;58446;41.490;22.098;2023-03-24T16:37:58;18.64;58.13
70826;SHT31;58446;41.490;22.098;2023-03-24T16:40:45;18.55;58.54
70826;SHT31;58446;41.490;22.098;2023-03-24T16:43:13;18.46;58.97
70826;SHT31;58446;41.490;22.098;2023-03-24T16:45:39;18.38;59.21
70826;SHT31;58446;41.490;22.098;2023-03-24T16:48:05;18.28;59.45
70826;SHT31;58446;41.490;22.098;2023-03-24T16:50:34;18.21;59.72
70826;SHT31;58446;41.490;22.098;2023-03-24T16:53:01;18.13;59.78
70826;SHT31;58446;41.490;22.098;2023-03-24T16:55:31;18.08;60.06
70826;SHT31;58446;41.490;22.098;2023-03-24T16:57:57;17.99;60.32
70826;SHT31;58446;41.490;22.098;2023-03-24T17:00:23;17.87;60.71
70826;SHT31;58446;41.490;22.098;2023-03-24T17:02:49;17.84;60.84
70826;SHT31;58446;41.490;22.098;2023-03-24T17:05:27;17.77;60.97
70826;SHT31;58446;41.490;22.098;2023-03-24T17:07:54;17.71;61.20
70826;SHT31;58446;41.490;22.098;2023-03-24T17:10:20;17.61;61.43
70826;SHT31;58446;41.490;22.098;2023-03-24T17:12:47;17.57;61.53
70826;SHT31;58446;41.490;22.098;2023-03-24T17:15:25;17.54;61.67
70826;SHT31;58446;41.490;22.098;2023-03-24T17:17:52;17.46;61.77
70826;SHT31;58446;41.490;22.098;2023-03-24T17:20:19;17.41;62.08
70826;SHT31;58446;41.490;22.098;2023-03-24T17:22:47;17.33;62.19
70826;SHT31;58446;41.490;22.098;2023-03-24T17:25:15;17.30;62.23
70826;SHT31;58446;41.490;22.098;2023-03-24T17:27:41;17.24;62.18
70826;SHT31;58446;41.490;22.098;2023-03-24T17:30:09;17.22;62.24
70826;SHT31;58446;41.490;22.098;2023-03-24T17:32:35;17.20;62.12
70826;SHT31;58446;41.490;22.098;2023-03-24T17:35:01;17.19;62.19
70826;SHT31;58446;41.490;22.098;2023-03-24T17:37:28;17.07;62.30
70826;SHT31;58446;41.490;22.098;2023-03-24T17:39:54;17.03;62.30
70826;SHT31;58446;41.490;22.098;2023-03-24T17:42:25;16.96;62.36
70826;SHT31;58446;41.490;22.098;2023-03-24T17:44:51;16.93;62.29
70826;SHT31;58446;41.490;22.098;2023-03-24T17:47:17;16.88;62.42
70826;SHT31;58446;41.490;22.098;2023-03-24T17:49:43;16.80;62.35
70826;SHT31;58446;41.490;22.098;2023-03-24T17:52:08;16.78;62.28
70826;SHT31;58446;41.490;22.098;2023-03-24T17:54:34;16.73;62.34